createdAt,value
2017-09-07T00:01:59.357Z,100687.94
2017-09-07T00:04:26.814Z,100681.08
2017-09-07T00:06:54.295Z,100678.95
2017-09-07T00:09:21.769Z,100684.10
2017-09-07T00:11:49.252Z,100679.07
2017-09-07T00:14:16.730Z,100679.89
2017-09-07T00:16:44.211Z,100677.52
2017-09-07T00:19:11.725Z,100672.94
2017-09-07T00:21:39.206Z,100671.72
2017-09-07T00:24:06.689Z,100672.88
2017-09-07T00:26:34.159Z,100675.79
2017-09-07T00:29:01.617Z,100678.09
2017-09-07T00:31:29.077Z,100670.63
2017-09-07T00:33:56.555Z,100668.17
2017-09-07T00:36:24.088Z,100666.90
2017-09-07T00:38:51.644Z,100663.80
2017-09-07T00:41:19.144Z,100668.11
2017-09-07T00:43:46.607Z,100665.38
2017-09-07T00:46:14.319Z,100664.63
2017-09-07T00:48:41.882Z,100666.09
2017-09-07T00:51:09.331Z,100654.30
2017-09-07T00:53:36.785Z,100658.13
2017-09-07T00:56:04.243Z,100655.70
2017-09-07T00:58:32.118Z,100650.59
2017-09-07T01:00:59.597Z,100650.00
2017-09-07T01:03:27.129Z,100647.73
2017-09-07T01:05:54.585Z,100650.00
2017-09-07T01:08:22.100Z,100648.67
2017-09-07T01:10:49.550Z,100648.58
2017-09-07T01:13:17.006Z,100647.44
2017-09-07T01:15:44.514Z,100644.31
2017-09-07T01:18:12.015Z,100650.37
2017-09-07T01:20:39.458Z,100643.38
2017-09-07T01:23:07.055Z,100645.56
2017-09-07T01:25:34.525Z,100642.23
2017-09-07T01:28:01.995Z,100646.67
2017-09-07T01:30:29.452Z,100639.93
2017-09-07T01:32:56.920Z,100636.58
2017-09-07T01:35:24.354Z,100633.72
2017-09-07T01:37:51.944Z,100639.47
2017-09-07T01:40:19.403Z,100632.53
2017-09-07T01:42:46.842Z,100628.30
2017-09-07T01:45:14.298Z,100629.98
2017-09-07T01:47:41.739Z,100630.14
2017-09-07T01:50:09.201Z,100620.31
2017-09-07T01:52:36.671Z,100632.06
2017-09-07T01:55:04.163Z,100627.16
2017-09-07T01:57:31.624Z,100631.14
2017-09-07T01:59:59.243Z,100631.38
2017-09-07T02:02:26.794Z,100620.97
2017-09-07T02:04:54.269Z,100631.54
2017-09-07T02:07:21.719Z,100630.27
2017-09-07T02:09:49.177Z,100632.35
2017-09-07T02:12:16.731Z,100626.75
2017-09-07T02:14:44.367Z,100621.16
2017-09-07T02:17:11.860Z,100620.01
2017-09-07T02:19:39.387Z,100623.17
2017-09-07T02:22:06.836Z,100622.49
2017-09-07T02:24:34.291Z,100612.72
2017-09-07T02:27:01.739Z,100615.28
2017-09-07T02:29:29.209Z,100617.10
2017-09-07T02:31:56.659Z,100613.96
2017-09-07T02:34:24.260Z,100617.69
2017-09-07T02:36:51.699Z,100622.59
2017-09-07T02:39:19.154Z,100614.35
2017-09-07T02:41:46.635Z,100607.97
2017-09-07T02:44:14.180Z,100606.41
2017-09-07T02:46:41.644Z,100614.59
2017-09-07T02:49:09.097Z,100609.97
2017-09-07T02:51:36.591Z,100607.41
2017-09-07T02:54:04.029Z,100609.05
2017-09-07T02:56:31.499Z,100611.13
2017-09-07T02:58:59.010Z,100604.40
2017-09-07T03:01:26.587Z,100604.37
2017-09-07T03:03:54.043Z,100598.05
2017-09-07T03:06:21.589Z,100600.82
2017-09-07T03:08:49.037Z,100598.64
2017-09-07T03:11:16.493Z,100601.16
2017-09-07T03:13:43.977Z,100591.35
2017-09-07T03:16:11.452Z,100591.41
2017-09-07T03:18:38.890Z,100582.55
2017-09-07T03:21:06.345Z,100583.72
2017-09-07T03:23:33.789Z,100589.81
2017-09-07T03:26:01.265Z,100586.80
2017-09-07T03:28:28.702Z,100579.56
2017-09-07T03:30:56.166Z,100577.23
2017-09-07T03:33:23.731Z,100580.20
2017-09-07T03:35:51.196Z,100578.20
2017-09-07T03:38:18.659Z,100576.49
2017-09-07T03:40:46.105Z,100577.80
2017-09-07T03:43:13.630Z,100568.16
2017-09-07T03:45:41.065Z,100574.16
2017-09-07T03:48:08.545Z,100566.73
2017-09-07T03:50:36.007Z,100569.53
2017-09-07T03:53:03.474Z,100572.38
2017-09-07T03:55:30.915Z,100569.70
2017-09-07T03:57:58.396Z,100572.89
2017-09-07T04:00:25.840Z,100575.73
2017-09-07T04:02:53.297Z,100578.67
2017-09-07T04:05:20.847Z,100574.52
2017-09-07T04:07:48.317Z,100574.95
2017-09-07T04:10:15.758Z,100573.55
2017-09-07T04:12:43.327Z,100568.56
2017-09-07T04:15:10.880Z,100564.45
2017-09-07T04:17:38.410Z,100563.88
2017-09-07T04:20:05.862Z,100572.88
2017-09-07T04:22:33.343Z,100560.20
2017-09-07T04:25:00.788Z,100559.70
2017-09-07T04:27:28.267Z,100567.73
2017-09-07T04:29:55.734Z,100563.92
2017-09-07T04:32:23.198Z,100560.60
2017-09-07T04:34:50.640Z,100567.96
2017-09-07T04:37:18.079Z,100568.09
2017-09-07T04:39:45.547Z,100568.67
2017-09-07T04:42:12.985Z,100562.81
2017-09-07T04:44:40.453Z,100561.16
2017-09-07T04:47:07.923Z,100563.48
2017-09-07T04:49:35.505Z,100559.22
2017-09-07T04:52:04.638Z,100562.14
2017-09-07T04:54:33.577Z,100554.07
2017-09-07T04:57:01.102Z,100554.07
2017-09-07T04:59:28.668Z,100547.44
2017-09-07T05:01:56.115Z,100550.72
2017-09-07T05:04:23.631Z,100547.71
2017-09-07T05:06:51.073Z,100549.55
2017-09-07T05:09:18.647Z,100550.66
2017-09-07T05:11:46.088Z,100553.41
2017-09-07T05:14:13.571Z,100551.33
2017-09-07T05:16:41.013Z,100552.86
2017-09-07T05:19:08.546Z,100561.41
2017-09-07T05:21:36.019Z,100559.84
2017-09-07T05:24:03.487Z,100561.22
2017-09-07T05:26:30.930Z,100564.16
2017-09-07T05:28:58.416Z,100562.75
2017-09-07T05:31:25.863Z,100571.03
2017-09-07T05:33:53.357Z,100565.13
2017-09-07T05:36:20.803Z,100569.63
2017-09-07T05:38:48.322Z,100575.76
2017-09-07T05:41:15.856Z,100574.67
2017-09-07T05:43:43.367Z,100581.69
2017-09-07T05:46:10.836Z,100584.30
2017-09-07T05:48:38.327Z,100582.63
2017-09-07T05:51:05.878Z,100588.16
2017-09-07T05:53:33.332Z,100581.69
2017-09-07T05:56:00.886Z,100585.88
2017-09-07T05:58:28.360Z,100583.09
2017-09-07T06:00:55.831Z,100573.62
2017-09-07T06:03:23.365Z,100575.72
2017-09-07T06:05:50.927Z,100575.53
2017-09-07T06:08:18.379Z,100579.26
2017-09-07T06:10:45.848Z,100581.69
2017-09-07T06:13:13.290Z,100576.30
2017-09-07T06:15:40.855Z,100575.20
2017-09-07T06:18:08.319Z,100578.11
2017-09-07T06:20:35.861Z,100582.77
2017-09-07T06:23:03.327Z,100582.23
2017-09-07T06:25:30.799Z,100580.75
2017-09-07T06:27:58.268Z,100587.16
2017-09-07T06:30:25.819Z,100588.89
2017-09-07T06:32:53.274Z,100586.78
2017-09-07T06:35:20.756Z,100586.75
2017-09-07T06:37:48.225Z,100585.34
2017-09-07T06:40:15.666Z,100585.00
2017-09-07T06:42:43.272Z,100584.92
2017-09-07T06:45:10.850Z,100584.70
2017-09-07T06:47:38.420Z,100582.13
2017-09-07T06:50:05.875Z,100582.06
2017-09-07T06:52:33.398Z,100590.59
2017-09-07T06:55:01.274Z,100587.50
2017-09-07T06:57:28.751Z,100587.20
2017-09-07T06:59:56.198Z,100588.14
2017-09-07T07:02:23.673Z,100585.98
2017-09-07T07:04:51.218Z,100587.73
2017-09-07T07:07:18.737Z,100583.39
2017-09-07T07:09:46.222Z,100581.77
2017-09-07T07:12:13.701Z,100582.20
2017-09-07T07:14:41.152Z,100582.37
2017-09-07T07:17:08.738Z,100581.54
2017-09-07T07:19:36.295Z,100582.17
2017-09-07T07:22:03.762Z,100588.16
2017-09-07T07:24:31.380Z,100583.50
2017-09-07T07:26:59.123Z,100587.25
2017-09-07T07:29:27.018Z,100585.91
2017-09-07T07:31:54.514Z,100589.20
2017-09-07T07:34:22.007Z,100598.10
2017-09-07T07:36:49.494Z,100592.23
2017-09-07T07:39:17.024Z,100595.97
2017-09-07T07:41:44.508Z,100599.80
2017-09-07T07:44:12.172Z,100602.30
2017-09-07T07:46:40.015Z,100598.91
2017-09-07T07:49:07.501Z,100601.06
2017-09-07T07:51:35.043Z,100605.83
2017-09-07T07:54:02.527Z,100601.52
2017-09-07T07:56:30.046Z,100606.94
2017-09-07T07:58:57.805Z,100600.22
2017-09-07T08:01:25.291Z,100599.28
2017-09-07T08:03:52.757Z,100605.82
2017-09-07T08:06:20.197Z,100601.06
2017-09-07T08:08:47.688Z,100603.98
2017-09-07T08:11:15.267Z,100598.22
2017-09-07T08:13:42.858Z,100599.73
2017-09-07T08:16:10.347Z,100595.06
2017-09-07T08:18:37.839Z,100601.05
2017-09-07T08:21:05.287Z,100600.59
2017-09-07T08:23:32.811Z,100598.95
2017-09-07T08:26:00.250Z,100604.02
2017-09-07T08:28:27.716Z,100608.85
2017-09-07T08:30:55.153Z,100609.05
2017-09-07T08:33:22.615Z,100604.83
2017-09-07T08:35:50.081Z,100612.23
2017-09-07T08:38:17.541Z,100603.11
2017-09-07T08:40:45.026Z,100601.48
2017-09-07T08:43:12.498Z,100598.11
2017-09-07T08:45:39.962Z,100595.98
2017-09-07T08:48:07.411Z,100592.45
2017-09-07T08:50:34.880Z,100595.42
2017-09-07T08:53:02.388Z,100595.14
2017-09-07T08:55:29.870Z,100587.50
2017-09-07T08:57:57.319Z,100582.25
2017-09-07T09:00:24.790Z,100589.04
2017-09-07T09:02:52.259Z,100577.78
2017-09-07T09:05:19.740Z,100582.14
2017-09-07T09:07:47.182Z,100580.25
2017-09-07T09:10:14.663Z,100579.30
2017-09-07T09:12:42.123Z,100572.32
2017-09-07T09:15:09.595Z,100566.53
2017-09-07T09:17:37.037Z,100571.88
2017-09-07T09:20:04.603Z,100568.96
2017-09-07T09:22:32.155Z,100568.84
2017-09-07T09:24:59.615Z,100561.19
2017-09-07T09:27:27.119Z,100566.80
2017-09-07T09:29:54.719Z,100551.98
2017-09-07T09:32:22.203Z,100554.09
2017-09-07T09:34:49.674Z,100543.17
2017-09-07T09:37:17.190Z,100539.00
2017-09-07T09:39:44.639Z,100535.73
2017-09-07T09:42:12.107Z,100530.73
2017-09-07T09:44:39.574Z,100536.20
2017-09-07T09:47:07.186Z,100535.77
2017-09-07T09:49:34.649Z,100526.00
2017-09-07T09:52:02.105Z,100524.16
2017-09-07T09:54:29.549Z,100527.30
2017-09-07T09:56:57.034Z,100525.50
2017-09-07T09:59:24.702Z,100525.23
2017-09-07T10:01:52.281Z,100522.70
2017-09-07T10:04:19.744Z,100520.97
2017-09-07T10:06:47.296Z,100515.15
2017-09-07T10:09:14.879Z,100510.06
2017-09-07T10:11:42.360Z,100509.05
2017-09-07T10:14:09.819Z,100508.42
2017-09-07T10:16:37.318Z,100505.45
2017-09-07T10:19:04.771Z,100506.20
2017-09-07T10:21:32.243Z,100501.83
2017-09-07T10:23:59.697Z,100497.37
2017-09-07T10:26:27.253Z,100504.45
2017-09-07T10:28:54.703Z,100494.77
2017-09-07T10:31:22.179Z,100492.70
2017-09-07T10:33:49.627Z,100494.94
2017-09-07T10:36:17.185Z,100490.20
2017-09-07T10:38:44.660Z,100490.47
2017-09-07T10:41:12.210Z,100490.81
2017-09-07T10:43:39.678Z,100486.25
2017-09-07T10:46:07.210Z,100488.45
2017-09-07T10:48:34.688Z,100488.25
2017-09-07T10:51:02.160Z,100485.58
2017-09-07T10:53:29.639Z,100485.69
2017-09-07T10:55:57.091Z,100487.73
2017-09-07T10:58:24.599Z,100486.67
2017-09-07T11:00:52.157Z,100485.48
2017-09-07T11:03:19.628Z,100483.16
2017-09-07T11:05:47.172Z,100480.30
2017-09-07T11:08:14.731Z,100479.66
2017-09-07T11:10:42.192Z,100486.02
2017-09-07T11:13:09.661Z,100483.66
2017-09-07T11:15:37.191Z,100479.46
2017-09-07T11:18:04.674Z,100472.86
2017-09-07T11:20:32.208Z,100473.80
2017-09-07T11:22:59.680Z,100476.48
2017-09-07T11:25:27.131Z,100475.20
2017-09-07T11:27:54.603Z,100467.04
2017-09-07T11:30:22.055Z,100472.29
2017-09-07T11:32:49.549Z,100470.89
2017-09-07T11:35:17.116Z,100472.73
2017-09-07T11:37:44.581Z,100473.42
2017-09-07T11:40:12.080Z,100471.05
2017-09-07T11:42:39.532Z,100467.07
2017-09-07T11:45:07.090Z,100465.09
2017-09-07T11:47:34.652Z,100459.11
2017-09-07T11:50:02.118Z,100463.60
2017-09-07T11:52:29.570Z,100457.53
2017-09-07T11:54:57.045Z,100463.17
2017-09-07T11:57:24.539Z,100459.72
2017-09-07T11:59:52.086Z,100464.50
2017-09-07T12:02:19.544Z,100466.35
2017-09-07T12:04:47.007Z,100461.18
2017-09-07T12:07:14.451Z,100455.53
2017-09-07T12:09:41.925Z,100454.14
2017-09-07T12:12:09.392Z,100452.03
2017-09-07T12:14:36.870Z,100445.91
2017-09-07T12:17:04.362Z,100445.80
2017-09-07T12:19:31.834Z,100441.86
2017-09-07T12:21:59.287Z,100441.21
2017-09-07T12:24:26.809Z,100439.61
2017-09-07T12:26:54.287Z,100445.86
2017-09-07T12:29:21.774Z,100438.05
2017-09-07T12:31:49.227Z,100431.73
2017-09-07T12:34:16.722Z,100441.75
2017-09-07T12:36:44.197Z,100434.54
2017-09-07T12:39:11.797Z,100429.02
2017-09-07T12:41:41.727Z,100439.30
2017-09-07T12:44:09.425Z,100432.80
2017-09-07T12:46:36.984Z,100430.69
2017-09-07T12:49:04.477Z,100426.19
2017-09-07T12:51:32.366Z,100425.55
2017-09-07T12:53:59.805Z,100428.32
2017-09-07T12:56:27.320Z,100419.86
2017-09-07T12:58:54.772Z,100429.94
2017-09-07T13:01:22.230Z,100423.55
2017-09-07T13:03:49.803Z,100426.26
2017-09-07T13:06:17.270Z,100426.60
2017-09-07T13:08:44.725Z,100414.62
2017-09-07T13:11:12.255Z,100418.08
2017-09-07T13:13:39.693Z,100414.30
2017-09-07T13:16:10.063Z,100404.91
2017-09-07T13:18:37.557Z,100404.14
2017-09-07T13:21:05.026Z,100400.55
2017-09-07T13:23:32.475Z,100401.66
2017-09-07T13:25:59.958Z,100398.05
2017-09-07T13:28:27.417Z,100384.45
2017-09-07T13:30:54.974Z,100383.34
2017-09-07T13:33:22.424Z,100378.56
2017-09-07T13:35:49.876Z,100374.30
2017-09-07T13:38:17.351Z,100368.45
2017-09-07T13:40:44.799Z,100366.80
2017-09-07T13:43:12.265Z,100365.38
2017-09-07T13:45:39.721Z,100366.59
2017-09-07T13:48:07.196Z,100373.13
2017-09-07T13:50:34.639Z,100371.09
2017-09-07T13:53:02.190Z,100374.17
2017-09-07T13:55:29.654Z,100372.27
2017-09-07T13:57:57.368Z,100366.25
2017-09-07T14:00:24.832Z,100369.40
2017-09-07T14:02:52.293Z,100366.34
2017-09-07T14:05:19.761Z,100364.44
2017-09-07T14:07:47.239Z,100366.17
2017-09-07T14:10:14.686Z,100362.22
2017-09-07T14:12:42.152Z,100361.74
2017-09-07T14:15:09.603Z,100361.99
2017-09-07T14:17:37.360Z,100358.75
2017-09-07T14:20:04.999Z,100366.77
2017-09-07T14:22:32.482Z,100362.78
2017-09-07T14:24:59.942Z,100364.08
2017-09-07T14:27:27.413Z,100358.81
2017-09-07T14:29:54.965Z,100359.27
2017-09-07T14:32:22.417Z,100357.86
2017-09-07T14:34:49.887Z,100368.94
2017-09-07T14:37:17.406Z,100365.56
2017-09-07T14:39:44.879Z,100368.38
2017-09-07T14:42:12.347Z,100365.64
2017-09-07T14:44:39.819Z,100354.47
2017-09-07T14:47:07.289Z,100360.92
2017-09-07T14:49:34.745Z,100364.81
2017-09-07T14:52:02.186Z,100361.17
2017-09-07T14:54:29.676Z,100356.00
2017-09-07T14:56:57.131Z,100351.03
2017-09-07T14:59:24.608Z,100353.08
2017-09-07T15:01:52.066Z,100352.02
2017-09-07T15:04:19.545Z,100354.14
2017-09-07T15:06:47.020Z,100348.73
2017-09-07T15:09:14.561Z,100347.34
2017-09-07T15:11:42.007Z,100341.22
2017-09-07T15:14:09.466Z,100340.16
2017-09-07T15:16:36.902Z,100336.44
2017-09-07T15:19:04.458Z,100333.77
2017-09-07T15:21:31.943Z,100332.36
2017-09-07T15:23:59.406Z,100329.94
2017-09-07T15:26:26.886Z,100327.64
2017-09-07T15:28:54.357Z,100322.00
2017-09-07T15:31:21.982Z,100330.98
2017-09-07T15:33:49.500Z,100324.26
2017-09-07T15:36:16.991Z,100315.91
2017-09-07T15:38:44.468Z,100320.02
2017-09-07T15:41:12.005Z,100323.88
2017-09-07T15:43:39.458Z,100319.52
2017-09-07T15:46:06.927Z,100330.05
2017-09-07T15:48:34.517Z,100335.09
2017-09-07T15:51:01.979Z,100343.23
2017-09-07T15:53:29.443Z,100346.80
2017-09-07T15:55:56.908Z,100346.81
2017-09-07T15:58:24.372Z,100341.28
2017-09-07T16:00:51.847Z,100332.81
2017-09-07T16:03:19.294Z,100328.75
2017-09-07T16:05:46.792Z,100329.06
2017-09-07T16:08:14.342Z,100324.31
2017-09-07T16:10:41.812Z,100332.51
2017-09-07T16:13:09.368Z,100336.50
2017-09-07T16:15:36.955Z,100335.53
2017-09-07T16:18:04.411Z,100335.27
2017-09-07T16:20:31.889Z,100336.95
2017-09-07T16:22:59.350Z,100331.99
2017-09-07T16:25:26.821Z,100331.61
2017-09-07T16:27:54.297Z,100331.11
2017-09-07T16:30:21.775Z,100336.09
2017-09-07T16:32:49.328Z,100332.89
2017-09-07T16:35:16.781Z,100321.96
2017-09-07T16:37:44.291Z,100328.61
2017-09-07T16:40:11.734Z,100328.00
2017-09-07T16:42:39.189Z,100331.31
2017-09-07T16:45:06.709Z,100321.28
2017-09-07T16:47:34.259Z,100314.80
2017-09-07T16:50:01.702Z,100317.49
2017-09-07T16:52:29.172Z,100321.11
2017-09-07T16:54:56.636Z,100319.91
2017-09-07T16:57:24.093Z,100325.69
2017-09-07T16:59:51.540Z,100325.09
2017-09-07T17:02:19.013Z,100328.56
2017-09-07T17:04:46.477Z,100317.65
2017-09-07T17:07:13.933Z,100318.80
2017-09-07T17:09:41.406Z,100315.61
2017-09-07T17:12:08.934Z,100318.55
2017-09-07T17:14:36.493Z,100320.78
2017-09-07T17:17:04.052Z,100320.84
2017-09-07T17:19:31.606Z,100311.02
2017-09-07T17:21:59.182Z,100308.00
2017-09-07T17:24:26.718Z,100309.83
2017-09-07T17:26:54.198Z,100317.88
2017-09-07T17:29:21.659Z,100313.83
2017-09-07T17:31:49.144Z,100313.67
2017-09-07T17:34:16.623Z,100317.17
2017-09-07T17:36:44.066Z,100314.84
2017-09-07T17:39:11.551Z,100319.91
2017-09-07T17:41:39.003Z,100320.13
2017-09-07T17:44:06.470Z,100313.55
2017-09-07T17:46:34.262Z,100321.10
2017-09-07T17:49:01.729Z,100322.59
2017-09-07T17:51:29.174Z,100326.09
2017-09-07T17:53:56.644Z,100324.58
2017-09-07T17:56:24.176Z,100324.58
2017-09-07T17:58:51.818Z,100332.34
2017-09-07T18:01:19.264Z,100323.72
2017-09-07T18:03:46.743Z,100323.39
2017-09-07T18:06:14.182Z,100326.46
2017-09-07T18:08:41.760Z,100324.78
2017-09-07T18:11:09.523Z,100319.80
2017-09-07T18:13:37.004Z,100324.52
2017-09-07T18:16:04.462Z,100321.67
2017-09-07T18:18:31.922Z,100320.66
2017-09-07T18:20:59.456Z,100323.67
2017-09-07T18:23:26.922Z,100323.05
2017-09-07T18:25:54.368Z,100326.54
2017-09-07T18:28:21.883Z,100321.83
2017-09-07T18:30:49.379Z,100319.02
2017-09-07T18:33:16.814Z,100325.54
2017-09-07T18:35:44.276Z,100318.09
2017-09-07T18:38:11.728Z,100320.92
2017-09-07T18:40:39.211Z,100324.38
2017-09-07T18:43:06.659Z,100328.78
2017-09-07T18:45:34.173Z,100334.80
2017-09-07T18:48:01.631Z,100336.48
2017-09-07T18:50:29.105Z,100345.41
2017-09-07T18:52:56.594Z,100347.47
2017-09-07T18:55:24.061Z,100345.27
2017-09-07T18:57:51.512Z,100346.17
2017-09-07T19:00:19.096Z,100338.30
2017-09-07T19:02:46.642Z,100338.51
2017-09-07T19:05:14.195Z,100336.14
2017-09-07T19:07:41.635Z,100342.95
2017-09-07T19:10:09.186Z,100344.66
2017-09-07T19:12:36.636Z,100346.88
2017-09-07T19:15:04.112Z,100344.19
2017-09-07T19:17:31.558Z,100345.64
2017-09-07T19:19:59.024Z,100339.95
2017-09-07T19:22:26.481Z,100340.14
2017-09-07T19:24:53.957Z,100341.84
2017-09-07T19:27:21.403Z,100343.81
2017-09-07T19:29:49.157Z,100347.67
2017-09-07T19:32:16.661Z,100346.02
2017-09-07T19:34:44.174Z,100343.91
2017-09-07T19:37:11.732Z,100333.77
2017-09-07T19:39:39.326Z,100333.28
2017-09-07T19:42:06.843Z,100336.90
2017-09-07T19:44:34.282Z,100343.86
2017-09-07T19:47:01.759Z,100347.67
2017-09-07T19:49:29.316Z,100351.28
2017-09-07T19:51:56.819Z,100350.99
2017-09-07T19:54:24.281Z,100346.87
2017-09-07T19:56:51.792Z,100351.00
2017-09-07T19:59:19.348Z,100348.27
2017-09-07T20:01:46.832Z,100343.45
2017-09-07T20:04:14.300Z,100342.66
2017-09-07T20:06:41.773Z,100343.01
2017-09-07T20:09:09.231Z,100343.44
2017-09-07T20:11:36.690Z,100339.98
2017-09-07T20:14:04.134Z,100339.64
2017-09-07T20:16:31.604Z,100334.36
2017-09-07T20:18:59.054Z,100327.35
2017-09-07T20:21:26.519Z,100325.29
2017-09-07T20:23:53.972Z,100323.45
2017-09-07T20:26:21.438Z,100322.34
2017-09-07T20:28:48.889Z,100325.14
2017-09-07T20:31:16.398Z,100331.23
2017-09-07T20:33:44.251Z,100328.97
2017-09-07T20:36:11.820Z,100319.59
2017-09-07T20:38:39.368Z,100313.48
2017-09-07T20:41:06.925Z,100323.81
2017-09-07T20:43:34.386Z,100316.27
2017-09-07T20:46:02.295Z,100312.28
2017-09-07T20:48:29.812Z,100308.63
2017-09-07T20:50:57.252Z,100315.22
2017-09-07T20:53:24.744Z,100307.44
2017-09-07T20:55:52.185Z,100309.31
2017-09-07T20:58:19.675Z,100302.14
2017-09-07T21:00:47.113Z,100303.34
2017-09-07T21:03:14.611Z,100302.30
2017-09-07T21:05:42.059Z,100304.31
2017-09-07T21:08:09.551Z,100304.40
2017-09-07T21:10:37.013Z,100305.06
2017-09-07T21:13:04.561Z,100303.36
2017-09-07T21:15:32.006Z,100305.94
2017-09-07T21:17:59.462Z,100301.39
2017-09-07T21:20:26.912Z,100296.59
2017-09-07T21:22:54.389Z,100298.55
2017-09-07T21:25:21.821Z,100299.66
2017-09-07T21:27:49.316Z,100283.17
2017-09-07T21:30:16.768Z,100280.78
2017-09-07T21:32:44.227Z,100267.48
2017-09-07T21:35:11.688Z,100268.34
2017-09-07T21:37:39.136Z,100260.22
2017-09-07T21:40:06.777Z,100256.77
2017-09-07T21:42:34.228Z,100258.31
2017-09-07T21:45:01.700Z,100249.70
2017-09-07T21:47:29.200Z,100257.05
2017-09-07T21:49:56.726Z,100252.53
2017-09-07T21:52:24.186Z,100256.19
2017-09-07T21:54:51.655Z,100249.12
2017-09-07T21:57:19.099Z,100256.63
2017-09-07T21:59:46.567Z,100258.30
2017-09-07T22:02:14.020Z,100256.28
2017-09-07T22:04:41.556Z,100262.84
2017-09-07T22:07:09.030Z,100246.67
2017-09-07T22:09:36.590Z,100246.05
2017-09-07T22:12:04.047Z,100238.07
2017-09-07T22:14:32.424Z,100233.60
2017-09-07T22:16:59.863Z,100236.02
2017-09-07T22:19:27.339Z,100232.80
2017-09-07T22:21:54.881Z,100230.14
2017-09-07T22:24:22.348Z,100232.90
2017-09-07T22:26:49.804Z,100231.12
2017-09-07T22:29:17.350Z,100226.06
2017-09-07T22:31:44.824Z,100224.14
2017-09-07T22:34:12.284Z,100222.70
2017-09-07T22:36:39.771Z,100227.17
2017-09-07T22:39:07.214Z,100228.70
2017-09-07T22:41:34.743Z,100229.91
2017-09-07T22:44:02.192Z,100230.58
2017-09-07T22:46:29.657Z,100231.92
2017-09-07T22:48:57.117Z,100225.67
2017-09-07T22:51:24.669Z,100224.20
2017-09-07T22:53:52.104Z,100216.72
2017-09-07T22:56:19.592Z,100213.92
2017-09-07T22:58:47.152Z,100217.43
2017-09-07T23:01:14.614Z,100209.31
2017-09-07T23:03:42.060Z,100212.83
2017-09-07T23:06:09.555Z,100204.64
2017-09-07T23:08:37.102Z,100191.61
2017-09-07T23:11:04.635Z,100188.58
2017-09-07T23:13:32.091Z,100184.95
2017-09-07T23:15:59.663Z,100179.72
2017-09-07T23:18:27.210Z,100173.89
2017-09-07T23:20:54.679Z,100177.44
2017-09-07T23:23:22.131Z,100180.00
2017-09-07T23:25:49.624Z,100183.80
2017-09-07T23:28:17.080Z,100184.56
2017-09-07T23:30:44.554Z,100175.39
2017-09-07T23:33:12.045Z,100180.67
2017-09-07T23:35:39.507Z,100186.91
2017-09-07T23:38:07.066Z,100183.59
2017-09-07T23:40:34.515Z,100178.72
2017-09-07T23:43:02.084Z,100181.34
2017-09-07T23:45:29.626Z,100173.47
2017-09-07T23:47:57.104Z,100167.70
2017-09-07T23:50:24.556Z,100163.56
2017-09-07T23:52:52.031Z,100164.00
2017-09-07T23:55:19.554Z,100160.27
2017-09-07T23:57:47.031Z,100150.61
